• Join FlightAware (Why Join?)
  • Login
  • US Flag 
05:11AM EDT


 

Airport Tracker/Info


-or-


 

Live Flight TrackerFlight Track Log ✈ JST526 ✈ 22-Apr-2013 ✈ YMML / MEL - YSSY / SYD

Flight Track Log - Related Links

Times and Time Zones

All times are in EDT time to prevent confusion due to time zone crossing. See the JST526 flight status page for this flight to view local times or setup timezone preferences in your user account.

Time Position Orientation Groundspeed Altitude Reporting Facility
EDT Latitude Longitude Course Direction KTS MPH feet Rate Location/Type
06:36AM -37.6600 144.8130 274° West 152 175 1,400  Level FlightAware
06:36AM -37.6599 144.8071 274° West 148 170 1,500 2,160 Climbing Aus ATC (RADAR)
06:36AM -37.6590 144.7900 273° West 167 192 2,300 1,740 Climbing FlightAware
06:37AM -37.6560 144.7610 277° West 199 229 3,100 1,980 Climbing FlightAware
06:37AM -37.6530 144.7180 275° West 243 280 4,300 2,520 Climbing FlightAware
06:38AM -37.6500 144.7080 291° West 245 282 4,800 3,600 Climbing FlightAware
06:38AM -37.6390 144.6910 309° West 250 288 5,800 4,200 Climbing FlightAware
06:38AM -37.6220 144.6820 337° Northwest 258 297 6,900 3,960 Climbing FlightAware
06:38AM -37.6050 144.6750 342° North 260 299 7,800 3,180 Climbing FlightAware
06:39AM -37.5690 144.6610 343° North 276 318 9,300 2,820 Climbing FlightAware
06:39AM -37.5150 144.6814 343° North 309 356 10,900 2,220 Climbing Aus ATC (RADAR)
06:40AM -37.5180 144.6800 343° North 326 375 10,800 360 Descending FlightAware
06:40AM -37.5080 144.6970 53° Northeast 348 400 11,000 1,320 Climbing FlightAware
06:40AM -37.4763 144.7638 53° Northeast 369 425 11,700 1,200 Climbing Aus ATC (RADAR)
06:40AM -37.4710 144.7760 53° Northeast 392 451 11,900 2,520 Climbing FlightAware
06:41AM -37.4280 144.8640 53° Northeast 404 465 13,800 2,760 Climbing Aus ATC (RADAR)
06:41AM -37.4250 144.8710 53° Northeast 408 470 14,000 2,280 Climbing FlightAware
06:42AM -37.3840 144.9530 58° Northeast 416 479 15,700 2,460 Climbing FlightAware
06:42AM -37.3480 145.0250 58° Northeast 423 487 17,100 2,280 Climbing FlightAware
06:43AM -37.3210 145.0807 58° Northeast 426 490 17,800 1,860 Climbing Aus ATC (RADAR)
06:43AM -37.3051 145.1131 58° Northeast 431 496 18,200 1,800 Climbing Aus ATC (RADAR)
06:43AM -37.2960 145.1320 58° Northeast 438 504 18,700 2,160 Climbing FlightAware
06:44AM -37.2520 145.2210 58° Northeast 443 510 20,200 2,100 Climbing FlightAware
06:45AM -37.2026 145.3196 58° Northeast 445 512 21,500 1,860 Climbing Aus ATC (RADAR)
06:45AM -37.2020 145.3200 58° Northeast 452 520 21,600 1,620 Climbing FlightAware
06:45AM -37.1630 145.3980 58° Northeast 457 526 22,600 1,560 Climbing FlightAware
06:46AM -37.1060 145.4970 54° Northeast 467 537 23,700 1,260 Climbing FlightAware
06:46AM -37.0821 145.5394 54° Northeast 467 537 23,900 1,200 Climbing Aus ATC (RADAR)
06:47AM -37.0628 145.5726 54° Northeast 471 542 24,300 1,560 Climbing Aus ATC (RADAR)
06:47AM -37.0490 145.5970 54° Northeast 476 548 24,700 1,680 Climbing FlightAware
06:47AM -37.0179 145.6509 54° Northeast 475 547 25,300 1,800 Climbing Aus ATC (RADAR)
06:47AM -36.9980 145.6860 54° Northeast 475 547 25,900 1,380 Climbing FlightAware
06:48AM -36.9460 145.7770 54° Northeast 483 556 26,700 1,260 Climbing FlightAware
06:49AM -36.8940 145.8650 54° Northeast 484 557 27,600 2,100 Climbing FlightAware
06:49AM -36.8366 145.9631 54° Northeast 470 541 29,500 2,520 Climbing Aus ATC (RADAR)
06:50AM -36.8360 145.9650 54° Northeast 469 540 29,500 900 Level FlightAware
06:50AM -36.7780 146.0623 54° Northeast 475 547 30,200 1,020 Climbing Aus ATC (RADAR)
06:50AM -36.7850 146.0530 54° Northeast 477 549 30,200 1,020 Level FlightAware
06:51AM -36.7270 146.1530 54° Northeast 484 557 31,000 1,020 Climbing FlightAware
06:51AM -36.6927 146.2084 54° Northeast 483 556 31,300 1,200 Climbing Aus ATC (RADAR)
06:52AM -36.6740 146.2430 54° Northeast 488 562 31,800 1,260 Climbing FlightAware
06:52AM -36.6140 146.3440 54° Northeast 489 563 32,700 1,320 Climbing FlightAware
06:53AM -36.5666 146.4230 54° Northeast 486 559 33,500 1,320 Climbing Aus ATC (RADAR)
06:53AM -36.5590 146.4380 54° Northeast 486 559 33,600 1,200 Climbing FlightAware
06:54AM -36.5064 146.5237 54° Northeast 484 557 34,400 1,320 Climbing Aus ATC (RADAR)
06:54AM -36.5060 146.5270 54° Northeast 483 556 34,500 1,260 Climbing FlightAware
06:54AM -36.4470 146.6270 54° Northeast 479 551 35,500 1,380 Climbing FlightAware
06:55AM -36.4087 146.6898 54° Northeast 474 545 36,100 1,200 Climbing Aus ATC (RADAR)
06:55AM -36.3960 146.7130 54° Northeast 474 545 36,300 480 Climbing FlightAware
06:55AM -36.3626 146.7664 54° Northeast 474 545 36,400 480 Climbing Aus ATC (RADAR)
06:56AM -36.3370 146.8110 54° Northeast 482 555 36,700 720 Climbing FlightAware
06:56AM -36.2963 146.8778 54° Northeast 482 555 37,000 420 Climbing Aus ATC (RADAR)
06:57AM -36.2810 146.9050 54° Northeast 482 555 37,000  Level FlightAware
06:57AM -36.2505 146.9553 54° Northeast 477 549 37,000  Level Aus ATC (RADAR)
06:57AM -36.2290 146.9930 54° Northeast 479 551 37,000  Level FlightAware
06:58AM -36.1838 147.0645 54° Northeast 474 545 37,000  Level Aus ATC (RADAR)
06:58AM -36.1642 147.0975 54° Northeast 474 545 37,000  Level Aus ATC (RADAR)
06:58AM -36.1700 147.0910 54° Northeast 477 549 37,000  Level FlightAware
06:59AM -36.1182 147.1738 54° Northeast 474 545 37,000  Level Aus ATC (RADAR)
06:59AM -36.1170 147.1790 54° Northeast 476 548 37,000  Level FlightAware
06:59AM -36.0640 147.2660 53° Northeast 475 547 37,000  Level FlightAware
07:00AM -36.0263 147.3254 53° Northeast 470 541 37,000  Level Aus ATC (RADAR)
07:00AM -36.0067 147.3583 54° Northeast 472 543 37,000  Level Aus ATC (RADAR)
07:00AM -36.0070 147.3600 54° Northeast 477 549 37,000  Level FlightAware
07:01AM -35.9539 147.4456 54° Northeast 474 545 37,000  Level Aus ATC (RADAR)
07:01AM -35.9540 147.4480 54° Northeast 480 552 37,000  Level FlightAware
07:01AM -35.8941 147.5435 54° Northeast 473 544 37,000  Level Aus ATC (RADAR)
07:01AM -35.8940 147.5470 54° Northeast 479 551 37,000  Level FlightAware
07:02AM -35.8475 147.6203 54° Northeast 478 550 37,000  Level Aus ATC (RADAR)
07:02AM -35.8390 147.6370 54° Northeast 480 552 37,000  Level FlightAware
07:03AM -35.7808 147.7293 54° Northeast 477 549 37,000  Level Aus ATC (RADAR)
07:03AM -35.7840 147.7260 54° Northeast 481 554 37,000  Level FlightAware
07:04AM -35.7260 147.8200 53° Northeast 482 555 37,000  Level FlightAware
07:04AM -35.6700 147.9120 53° Northeast 482 555 37,000  Level FlightAware
07:05AM -35.6131 148.0020 53° Northeast 477 549 37,000  Level Aus ATC (RADAR)
07:05AM -35.5932 148.0348 53° Northeast 477 549 37,000  Level Aus ATC (RADAR)
07:06AM -35.5462 148.1110 53° Northeast 478 550 37,000  Level Aus ATC (RADAR)
07:07AM -35.4725 148.2308 53° Northeast 476 548 37,000  Level Aus ATC (RADAR)
07:07AM -35.4430 148.2900 58° Northeast 487 560 37,000  Level FlightAware
07:07AM -35.4307 148.3132 58° Northeast 480 552 37,000  Level Aus ATC (RADAR)
07:08AM -35.3647 148.4420 58° Northeast 483 556 37,000  Level Aus ATC (RADAR)
07:09AM -35.3215 148.5231 57° Northeast 483 556 37,000  Level Aus ATC (RADAR)
07:10AM -35.2650 148.6290 57° Northeast 485 558 37,000  Level FlightAware
07:10AM -35.2349 148.6853 57° Northeast 484 557 37,000  Level Aus ATC (RADAR)
07:10AM -35.2165 148.7202 57° Northeast 484 557 37,000  Level Aus ATC (RADAR)
07:11AM -35.1733 148.8009 57° Northeast 481 554 37,000  Level Aus ATC (RADAR)
07:11AM -35.1117 148.9155 57° Northeast 478 550 37,000  Level Aus ATC (RADAR)
07:12AM -35.0860 148.9630 57° Northeast 480 552 37,000  Level FlightAware
07:13AM -35.0073 149.1095 57° Northeast 477 549 37,000 -540 Level Aus ATC (RADAR)
07:14AM -34.9456 149.2236 57° Northeast 474 545 36,100 -1,680 Descending Aus ATC (RADAR)
07:14AM -34.9090 149.2910 57° Northeast 485 558 34,600 -3,180 Descending FlightAware
07:15AM -34.8449 149.4082 57° Northeast 485 558 31,900 -3,600 Descending Aus ATC (RADAR)
07:15AM -34.8195 149.4555 57° Northeast 488 562 30,900 -2,400 Descending Aus ATC (RADAR)
07:16AM -34.7814 149.5250 56° Northeast 484 557 29,900 -2,160 Descending Aus ATC (RADAR)
07:17AM -34.7123 149.6511 56° Northeast 478 550 27,900 -2,280 Descending Aus ATC (RADAR)
07:17AM -34.6689 149.7299 56° Northeast 471 542 26,500 -2,160 Descending Aus ATC (RADAR)
07:18AM -34.6230 149.8140 56° Northeast 467 537 25,100 -2,160 Descending FlightAware
07:18AM -34.5907 149.8717 56° Northeast 453 521 24,200 -2,160 Descending Aus ATC (RADAR)
07:19AM -34.5620 149.9240 56° Northeast 466 536 23,300 -2,160 Descending FlightAware
07:20AM -34.5140 150.0100 56° Northeast 457 526 21,800 -2,340 Descending FlightAware
07:20AM -34.4785 150.0750 56° Northeast 441 507 20,700 -2,280 Descending Aus ATC (RADAR)
07:20AM -34.4660 150.0970 56° Northeast 448 516 20,300 -2,400 Descending FlightAware
07:20AM -34.4612 150.1061 56° Northeast 438 504 20,100 -2,460 Descending Aus ATC (RADAR)
07:21AM -34.4210 150.1781 56° Northeast 431 496 18,800 -2,100 Descending Aus ATC (RADAR)
07:21AM -34.4140 150.1910 56° Northeast 438 504 18,600 -2,040 Descending FlightAware
07:22AM -34.3690 150.2720 56° Northeast 428 493 17,200 -2,220 Descending FlightAware
07:22AM -34.3269 150.3470 56° Northeast 411 473 15,800 -2,040 Descending Aus ATC (RADAR)
07:22AM -34.3230 150.3540 56° Northeast 416 479 15,700 -1,860 Descending FlightAware
07:23AM -34.2790 150.4340 56° Northeast 418 481 14,300 -1,980 Descending FlightAware
07:23AM -34.2561 150.4845 56° Northeast 400 460 13,700 -1,740 Descending Aus ATC (RADAR)
07:24AM -34.2460 150.5070 56° Northeast 399 459 13,300 -2,520 Descending FlightAware
07:24AM -34.2257 150.5527 56° Northeast 384 442 12,200 -2,160 Descending Aus ATC (RADAR)
07:25AM -34.2060 150.5950 56° Northeast 390 449 11,500 -1,200 Descending FlightAware
07:25AM -34.1730 150.6700 62° Northeast 360 414 10,900 -1,020 Descending FlightAware
07:26AM -34.1514 150.7180 62° Northeast 344 396 10,500 -1,020 Descending Aus ATC (RADAR)
07:26AM -34.1404 150.7423 61° Northeast 331 381 10,300 -540 Descending Aus ATC (RADAR)
07:26AM -34.1390 150.7460 61° Northeast 323 372 10,300 -540 Level FlightAware
07:26AM -34.1210 150.7850 61° Northeast 311 358 10,000 -1,200 Descending FlightAware
07:26AM -34.1159 150.7967 61° Northeast 308 354 9,800 -1,620 Descending Aus ATC (RADAR)
07:27AM -34.1110 150.8080 62° Northeast 301 346 9,600 -1,260 Descending FlightAware
07:27AM -34.1050 150.8330 74° East 302 348 9,200 -1,800 Descending FlightAware
07:27AM -34.1145 150.8854 74° East 293 337 8,400 -1,440 Descending Aus ATC (RADAR)
07:27AM -34.1130 150.8810 74° East 301 346 8,500 -840 Climbing FlightAware
07:28AM -34.1220 150.9170 107° East 294 338 8,000 -1,320 Descending FlightAware
07:28AM -34.1320 150.9650 104° East 286 329 7,300 -1,620 Descending FlightAware
07:29AM -34.1380 150.9920 105° East 287 330 6,800 -1,980 Descending FlightAware
07:29AM -34.1470 151.0290 105° East 292 336 6,000 -2,580 Descending FlightAware
07:29AM -34.1498 151.0425 105° East 281 323 5,700 -1,620 Descending Aus ATC (RADAR)
07:29AM -34.1580 151.0770 105° East 300 345 5,200 -1,080 Descending FlightAware
07:30AM -34.1620 151.0950 105° East 295 339 5,000 -1,380 Descending FlightAware
07:30AM -34.1720 151.1350 107° East 286 329 4,400 -1,440 Descending FlightAware
07:30AM -34.1800 151.1730 104° East 287 330 3,800 -1,080 Descending FlightAware
07:31AM -34.1710 151.2040 71° East 269 310 3,600 -720 Descending FlightAware
07:31AM -34.1550 151.2180 36° Northeast 244 281 3,400 -600 Descending FlightAware
07:31AM -34.1420 151.2210 11° North 230 265 3,300 -900 Descending FlightAware
07:32AM -34.0881 151.2129 11° North 223 257 2,500 -1,140 Descending Aus ATC (RADAR)
07:33AM -34.0548 151.2039 347° North 207 238 1,800 -1,020 Descending Aus ATC (RADAR)
07:33AM -34.0163 151.1943 348° North 161 185 1,100 -780 Descending Aus ATC (RADAR)
07:34AM -34.0170 151.1940 348° North 149 171 1,100 -720 Level FlightAware
07:34AM -33.9850 151.1862 348° North 139 160 500 -720 Descending Aus ATC (RADAR)
07:35AM -33.9700 151.1820 348° North 132 152 200 -600 Descending FlightAware